sensor_id;sensor_type;location;lat;lon;timestamp;P1;durP1;ratioP1;P2;durP2;ratioP2
12650;SDS011;6390;49.400;8.670;2023-02-28T00:01:11;1.20;;;1.10;;
12650;SDS011;6390;49.400;8.670;2023-02-28T00:03:38;1.65;;;1.00;;
12650;SDS011;6390;49.400;8.670;2023-02-28T00:06:04;1.30;;;1.20;;
12650;SDS011;6390;49.400;8.670;2023-02-28T00:08:32;1.17;;;1.08;;
12650;SDS011;6390;49.400;8.670;2023-02-28T00:11:02;1.52;;;1.42;;
12650;SDS011;6390;49.400;8.670;2023-02-28T00:13:31;1.20;;;1.10;;
12650;SDS011;6390;49.400;8.670;2023-02-28T00:16:08;1.10;;;1.00;;
12650;SDS011;6390;49.400;8.670;2023-02-28T00:18:38;1.60;;;1.00;;
12650;SDS011;6390;49.400;8.670;2023-02-28T00:21:04;1.20;;;1.10;;
12650;SDS011;6390;49.400;8.670;2023-02-28T00:23:31;2.13;;;1.15;;
12650;SDS011;6390;49.400;8.670;2023-02-28T00:25:57;1.30;;;1.20;;
12650;SDS011;6390;49.400;8.670;2023-02-28T00:28:24;1.20;;;1.10;;
12650;SDS011;6390;49.400;8.670;2023-02-28T00:30:50;1.30;;;1.20;;
12650;SDS011;6390;49.400;8.670;2023-02-28T00:33:16;1.45;;;1.20;;
12650;SDS011;6390;49.400;8.670;2023-02-28T00:35:42;1.58;;;1.45;;
12650;SDS011;6390;49.400;8.670;2023-02-28T00:38:11;1.30;;;1.20;;
12650;SDS011;6390;49.400;8.670;2023-02-28T00:40:38;1.67;;;1.27;;
12650;SDS011;6390;49.400;8.670;2023-02-28T00:43:04;2.50;;;1.48;;
12650;SDS011;6390;49.400;8.670;2023-02-28T00:45:30;2.35;;;1.30;;
12650;SDS011;6390;49.400;8.670;2023-02-28T00:47:56;1.30;;;1.20;;
12650;SDS011;6390;49.400;8.670;2023-02-28T00:50:22;1.30;;;1.20;;
12650;SDS011;6390;49.400;8.670;2023-02-28T00:52:48;1.63;;;1.40;;
12650;SDS011;6390;49.400;8.670;2023-02-28T00:55:14;1.30;;;1.20;;
12650;SDS011;6390;49.400;8.670;2023-02-28T00:57:41;1.45;;;1.35;;
12650;SDS011;6390;49.400;8.670;2023-02-28T01:00:08;1.60;;;1.48;;
12650;SDS011;6390;49.400;8.670;2023-02-28T01:02:34;1.50;;;1.40;;
12650;SDS011;6390;49.400;8.670;2023-02-28T01:05:00;1.45;;;1.33;;
12650;SDS011;6390;49.400;8.670;2023-02-28T01:07:27;2.30;;;1.27;;
12650;SDS011;6390;49.400;8.670;2023-02-28T01:09:53;1.30;;;1.20;;
12650;SDS011;6390;49.400;8.670;2023-02-28T01:12:19;1.42;;;1.33;;
12650;SDS011;6390;49.400;8.670;2023-02-28T01:14:45;1.55;;;1.35;;
12650;SDS011;6390;49.400;8.670;2023-02-28T01:17:11;1.38;;;1.27;;
12650;SDS011;6390;49.400;8.670;2023-02-28T01:19:37;1.45;;;1.35;;
12650;SDS011;6390;49.400;8.670;2023-02-28T01:22:04;1.50;;;1.40;;
12650;SDS011;6390;49.400;8.670;2023-02-28T01:24:32;1.80;;;1.50;;
12650;SDS011;6390;49.400;8.670;2023-02-28T01:26:58;1.60;;;1.50;;
12650;SDS011;6390;49.400;8.670;2023-02-28T01:29:24;1.60;;;1.50;;
12650;SDS011;6390;49.400;8.670;2023-02-28T01:31:50;1.40;;;1.30;;
12650;SDS011;6390;49.400;8.670;2023-02-28T01:34:16;2.45;;;1.50;;
12650;SDS011;6390;49.400;8.670;2023-02-28T01:36:44;3.25;;;1.73;;
12650;SDS011;6390;49.400;8.670;2023-02-28T01:39:10;2.35;;;1.40;;
12650;SDS011;6390;49.400;8.670;2023-02-28T01:41:37;1.50;;;1.40;;
12650;SDS011;6390;49.400;8.670;2023-02-28T01:44:54;2.38;;;1.60;;
12650;SDS011;6390;49.400;8.670;2023-02-28T01:47:21;3.03;;;1.42;;
12650;SDS011;6390;49.400;8.670;2023-02-28T01:49:48;1.65;;;1.40;;
12650;SDS011;6390;49.400;8.670;2023-02-28T01:52:16;2.22;;;1.50;;
12650;SDS011;6390;49.400;8.670;2023-02-28T01:54:47;1.33;;;1.23;;
12650;SDS011;6390;49.400;8.670;2023-02-28T01:57:18;2.25;;;1.30;;
12650;SDS011;6390;49.400;8.670;2023-02-28T02:00:00;1.60;;;1.50;;
12650;SDS011;6390;49.400;8.670;2023-02-28T02:02:49;1.50;;;1.40;;
12650;SDS011;6390;49.400;8.670;2023-02-28T02:05:23;1.50;;;1.40;;
12650;SDS011;6390;49.400;8.670;2023-02-28T02:07:52;1.70;;;1.60;;
12650;SDS011;6390;49.400;8.670;2023-02-28T02:10:29;2.10;;;1.55;;
12650;SDS011;6390;49.400;8.670;2023-02-28T02:22:12;1.98;;;1.77;;
12650;SDS011;6390;49.400;8.670;2023-02-28T02:34:20;1.77;;;1.67;;
12650;SDS011;6390;49.400;8.670;2023-02-28T02:37:12;1.92;;;1.70;;
12650;SDS011;6390;49.400;8.670;2023-02-28T02:39:53;1.73;;;1.42;;
12650;SDS011;6390;49.400;8.670;2023-02-28T02:42:52;1.85;;;1.70;;
12650;SDS011;6390;49.400;8.670;2023-02-28T02:45:34;1.63;;;1.52;;
12650;SDS011;6390;49.400;8.670;2023-02-28T02:48:12;1.80;;;1.70;;
12650;SDS011;6390;49.400;8.670;2023-02-28T02:50:45;1.90;;;1.70;;
12650;SDS011;6390;49.400;8.670;2023-02-28T02:53:25;1.70;;;1.60;;
12650;SDS011;6390;49.400;8.670;2023-02-28T02:55:55;1.70;;;1.60;;
12650;SDS011;6390;49.400;8.670;2023-02-28T02:58:22;1.77;;;1.67;;
12650;SDS011;6390;49.400;8.670;2023-02-28T03:00:53;1.80;;;1.70;;
12650;SDS011;6390;49.400;8.670;2023-02-28T03:03:23;2.13;;;2.00;;
12650;SDS011;6390;49.400;8.670;2023-02-28T03:05:54;1.98;;;1.80;;
12650;SDS011;6390;49.400;8.670;2023-02-28T03:08:22;2.20;;;2.00;;
12650;SDS011;6390;49.400;8.670;2023-02-28T03:11:12;2.10;;;1.90;;
12650;SDS011;6390;49.400;8.670;2023-02-28T03:25:13;1.60;;;1.50;;
12650;SDS011;6390;49.400;8.670;2023-02-28T03:28:07;2.88;;;1.73;;
12650;SDS011;6390;49.400;8.670;2023-02-28T03:30:51;2.40;;;1.90;;
12650;SDS011;6390;49.400;8.670;2023-02-28T03:33:34;2.47;;;1.83;;
12650;SDS011;6390;49.400;8.670;2023-02-28T03:36:30;2.70;;;1.83;;
12650;SDS011;6390;49.400;8.670;2023-02-28T03:39:08;1.83;;;1.73;;
12650;SDS011;6390;49.400;8.670;2023-02-28T03:41:43;1.92;;;1.70;;
12650;SDS011;6390;49.400;8.670;2023-02-28T03:44:16;1.65;;;1.55;;
12650;SDS011;6390;49.400;8.670;2023-02-28T03:47:00;1.92;;;1.83;;
12650;SDS011;6390;49.400;8.670;2023-02-28T03:49:35;2.00;;;1.83;;
12650;SDS011;6390;49.400;8.670;2023-02-28T03:52:18;2.22;;;1.70;;
12650;SDS011;6390;49.400;8.670;2023-02-28T03:54:48;2.10;;;1.90;;
12650;SDS011;6390;49.400;8.670;2023-02-28T03:59:57;2.30;;;2.00;;
12650;SDS011;6390;49.400;8.670;2023-02-28T04:02:30;3.00;;;1.95;;
12650;SDS011;6390;49.400;8.670;2023-02-28T04:04:57;2.60;;;2.13;;
12650;SDS011;6390;49.400;8.670;2023-02-28T04:07:24;2.70;;;1.80;;
12650;SDS011;6390;49.400;8.670;2023-02-28T04:09:51;1.70;;;1.60;;
12650;SDS011;6390;49.400;8.670;2023-02-28T04:12:17;2.20;;;2.00;;
12650;SDS011;6390;49.400;8.670;2023-02-28T04:14:43;4.90;;;2.00;;
12650;SDS011;6390;49.400;8.670;2023-02-28T04:17:09;2.00;;;1.90;;
12650;SDS011;6390;49.400;8.670;2023-02-28T04:19:35;3.00;;;1.97;;
12650;SDS011;6390;49.400;8.670;2023-02-28T04:22:01;2.05;;;1.83;;
12650;SDS011;6390;49.400;8.670;2023-02-28T04:24:28;2.00;;;1.80;;
12650;SDS011;6390;49.400;8.670;2023-02-28T04:26:55;1.70;;;1.60;;
12650;SDS011;6390;49.400;8.670;2023-02-28T04:29:27;1.90;;;1.70;;
12650;SDS011;6390;49.400;8.670;2023-02-28T04:31:55;1.80;;;1.70;;
12650;SDS011;6390;49.400;8.670;2023-02-28T04:34:25;2.10;;;1.90;;
12650;SDS011;6390;49.400;8.670;2023-02-28T04:36:53;2.27;;;2.07;;
12650;SDS011;6390;49.400;8.670;2023-02-28T04:39:20;2.05;;;1.90;;
12650;SDS011;6390;49.400;8.670;2023-02-28T04:41:47;2.13;;;1.90;;
12650;SDS011;6390;49.400;8.670;2023-02-28T04:44:14;3.72;;;2.15;;
12650;SDS011;6390;49.400;8.670;2023-02-28T04:46:41;1.75;;;1.65;;
12650;SDS011;6390;49.400;8.670;2023-02-28T04:49:08;2.77;;;2.23;;
12650;SDS011;6390;49.400;8.670;2023-02-28T04:51:36;3.03;;;1.80;;
12650;SDS011;6390;49.400;8.670;2023-02-28T04:54:03;2.20;;;2.00;;
12650;SDS011;6390;49.400;8.670;2023-02-28T04:56:29;1.90;;;1.70;;
12650;SDS011;6390;49.400;8.670;2023-02-28T04:58:55;2.63;;;2.05;;
12650;SDS011;6390;49.400;8.670;2023-02-28T05:03:56;2.33;;;2.13;;
12650;SDS011;6390;49.400;8.670;2023-02-28T05:06:25;2.97;;;2.47;;
12650;SDS011;6390;49.400;8.670;2023-02-28T05:08:53;2.88;;;2.40;;
12650;SDS011;6390;49.400;8.670;2023-02-28T05:11:26;2.28;;;2.03;;
12650;SDS011;6390;49.400;8.670;2023-02-28T05:13:58;2.92;;;2.35;;
12650;SDS011;6390;49.400;8.670;2023-02-28T05:16:24;2.28;;;2.08;;
12650;SDS011;6390;49.400;8.670;2023-02-28T05:18:51;2.47;;;2.25;;
12650;SDS011;6390;49.400;8.670;2023-02-28T05:21:32;2.38;;;2.17;;
12650;SDS011;6390;49.400;8.670;2023-02-28T05:24:02;2.35;;;2.15;;
12650;SDS011;6390;49.400;8.670;2023-02-28T05:26:36;2.40;;;2.17;;
12650;SDS011;6390;49.400;8.670;2023-02-28T05:29:05;2.88;;;2.42;;
12650;SDS011;6390;49.400;8.670;2023-02-28T05:31:31;3.00;;;2.20;;
12650;SDS011;6390;49.400;8.670;2023-02-28T05:33:58;3.15;;;1.90;;
12650;SDS011;6390;49.400;8.670;2023-02-28T05:36:24;2.70;;;2.47;;
12650;SDS011;6390;49.400;8.670;2023-02-28T05:38:51;2.60;;;2.40;;
12650;SDS011;6390;49.400;8.670;2023-02-28T05:41:18;2.78;;;2.58;;
12650;SDS011;6390;49.400;8.670;2023-02-28T05:43:45;2.22;;;2.03;;
12650;SDS011;6390;49.400;8.670;2023-02-28T05:46:12;2.95;;;2.75;;
12650;SDS011;6390;49.400;8.670;2023-02-28T05:48:39;3.25;;;2.42;;
12650;SDS011;6390;49.400;8.670;2023-02-28T05:51:06;2.42;;;2.22;;
12650;SDS011;6390;49.400;8.670;2023-02-28T05:53:33;2.30;;;2.08;;
12650;SDS011;6390;49.400;8.670;2023-02-28T05:56:00;2.60;;;2.30;;
12650;SDS011;6390;49.400;8.670;2023-02-28T05:58:27;2.50;;;2.30;;
12650;SDS011;6390;49.400;8.670;2023-02-28T06:00:56;2.40;;;2.20;;
12650;SDS011;6390;49.400;8.670;2023-02-28T06:03:26;2.53;;;2.22;;
12650;SDS011;6390;49.400;8.670;2023-02-28T06:05:52;2.30;;;2.08;;
12650;SDS011;6390;49.400;8.670;2023-02-28T06:08:18;1.92;;;1.75;;
12650;SDS011;6390;49.400;8.670;2023-02-28T06:10:44;2.17;;;1.98;;
12650;SDS011;6390;49.400;8.670;2023-02-28T06:13:11;2.28;;;2.08;;
12650;SDS011;6390;49.400;8.670;2023-02-28T06:15:37;2.13;;;1.92;;
12650;SDS011;6390;49.400;8.670;2023-02-28T06:18:04;2.20;;;2.00;;
12650;SDS011;6390;49.400;8.670;2023-02-28T06:20:30;3.75;;;2.42;;
12650;SDS011;6390;49.400;8.670;2023-02-28T06:22:56;3.60;;;1.92;;
12650;SDS011;6390;49.400;8.670;2023-02-28T06:25:26;2.25;;;2.05;;
12650;SDS011;6390;49.400;8.670;2023-02-28T06:27:53;2.35;;;2.15;;
12650;SDS011;6390;49.400;8.670;2023-02-28T06:30:20;2.70;;;2.50;;
12650;SDS011;6390;49.400;8.670;2023-02-28T06:32:50;3.50;;;2.55;;
12650;SDS011;6390;49.400;8.670;2023-02-28T06:35:16;2.60;;;2.10;;
12650;SDS011;6390;49.400;8.670;2023-02-28T06:37:43;2.13;;;1.98;;
12650;SDS011;6390;49.400;8.670;2023-02-28T06:40:09;2.90;;;2.50;;
12650;SDS011;6390;49.400;8.670;2023-02-28T06:42:37;3.20;;;2.28;;
12650;SDS011;6390;49.400;8.670;2023-02-28T06:45:03;2.53;;;2.33;;
12650;SDS011;6390;49.400;8.670;2023-02-28T06:47:33;2.65;;;2.45;;
12650;SDS011;6390;49.400;8.670;2023-02-28T06:50:01;2.67;;;2.45;;
12650;SDS011;6390;49.400;8.670;2023-02-28T06:52:27;2.38;;;2.17;;
12650;SDS011;6390;49.400;8.670;2023-02-28T06:54:53;2.60;;;2.25;;
12650;SDS011;6390;49.400;8.670;2023-02-28T06:57:25;4.15;;;3.00;;
12650;SDS011;6390;49.400;8.670;2023-02-28T06:59:55;3.38;;;2.50;;
12650;SDS011;6390;49.400;8.670;2023-02-28T07:02:22;2.50;;;2.30;;
12650;SDS011;6390;49.400;8.670;2023-02-28T07:04:49;3.47;;;2.58;;
12650;SDS011;6390;49.400;8.670;2023-02-28T07:07:15;2.67;;;2.40;;
12650;SDS011;6390;49.400;8.670;2023-02-28T07:09:41;2.53;;;2.33;;
12650;SDS011;6390;49.400;8.670;2023-02-28T07:12:07;2.58;;;2.38;;
12650;SDS011;6390;49.400;8.670;2023-02-28T07:14:33;3.55;;;2.72;;
12650;SDS011;6390;49.400;8.670;2023-02-28T07:17:01;2.55;;;2.33;;
12650;SDS011;6390;49.400;8.670;2023-02-28T07:19:27;2.45;;;2.22;;
12650;SDS011;6390;49.400;8.670;2023-02-28T07:21:53;2.90;;;2.60;;
12650;SDS011;6390;49.400;8.670;2023-02-28T07:24:20;2.30;;;2.10;;
12650;SDS011;6390;49.400;8.670;2023-02-28T07:26:48;3.63;;;2.20;;
12650;SDS011;6390;49.400;8.670;2023-02-28T07:29:14;5.15;;;3.65;;
12650;SDS011;6390;49.400;8.670;2023-02-28T07:31:40;3.30;;;3.00;;
12650;SDS011;6390;49.400;8.670;2023-02-28T07:34:06;2.67;;;2.47;;
12650;SDS011;6390;49.400;8.670;2023-02-28T07:36:32;2.67;;;2.47;;
12650;SDS011;6390;49.400;8.670;2023-02-28T07:38:59;2.97;;;2.60;;
12650;SDS011;6390;49.400;8.670;2023-02-28T07:41:25;3.78;;;2.70;;
12650;SDS011;6390;49.400;8.670;2023-02-28T07:43:54;2.65;;;2.42;;
12650;SDS011;6390;49.400;8.670;2023-02-28T07:46:22;3.22;;;2.92;;
12650;SDS011;6390;49.400;8.670;2023-02-28T07:48:48;3.63;;;2.92;;
12650;SDS011;6390;49.400;8.670;2023-02-28T07:51:14;2.70;;;2.50;;
12650;SDS011;6390;49.400;8.670;2023-02-28T07:53:40;2.80;;;2.58;;
12650;SDS011;6390;49.400;8.670;2023-02-28T07:56:07;2.50;;;2.30;;
12650;SDS011;6390;49.400;8.670;2023-02-28T07:58:33;2.67;;;2.25;;
12650;SDS011;6390;49.400;8.670;2023-02-28T08:01:04;3.58;;;3.00;;
12650;SDS011;6390;49.400;8.670;2023-02-28T08:03:35;3.25;;;2.97;;
12650;SDS011;6390;49.400;8.670;2023-02-28T08:06:02;2.50;;;2.30;;
12650;SDS011;6390;49.400;8.670;2023-02-28T08:08:29;2.80;;;2.50;;
12650;SDS011;6390;49.400;8.670;2023-02-28T08:10:58;4.28;;;3.08;;
12650;SDS011;6390;49.400;8.670;2023-02-28T08:13:26;2.70;;;2.50;;
12650;SDS011;6390;49.400;8.670;2023-02-28T08:15:54;4.82;;;2.80;;
12650;SDS011;6390;49.400;8.670;2023-02-28T08:18:20;3.10;;;2.80;;
12650;SDS011;6390;49.400;8.670;2023-02-28T08:20:47;2.80;;;2.60;;
12650;SDS011;6390;49.400;8.670;2023-02-28T08:23:13;3.67;;;2.97;;
12650;SDS011;6390;49.400;8.670;2023-02-28T08:25:40;2.85;;;2.58;;
12650;SDS011;6390;49.400;8.670;2023-02-28T08:28:06;2.90;;;2.70;;
12650;SDS011;6390;49.400;8.670;2023-02-28T08:30:32;3.55;;;2.90;;
12650;SDS011;6390;49.400;8.670;2023-02-28T08:32:58;3.30;;;3.00;;
12650;SDS011;6390;49.400;8.670;2023-02-28T08:35:24;3.08;;;2.78;;
12650;SDS011;6390;49.400;8.670;2023-02-28T08:37:50;3.05;;;2.75;;
12650;SDS011;6390;49.400;8.670;2023-02-28T08:40:16;4.22;;;3.72;;
12650;SDS011;6390;49.400;8.670;2023-02-28T08:42:46;4.22;;;3.47;;
12650;SDS011;6390;49.400;8.670;2023-02-28T08:45:13;3.97;;;3.30;;
12650;SDS011;6390;49.400;8.670;2023-02-28T08:47:40;3.53;;;3.05;;
12650;SDS011;6390;49.400;8.670;2023-02-28T08:50:06;3.78;;;3.28;;
12650;SDS011;6390;49.400;8.670;2023-02-28T08:52:33;3.53;;;3.22;;
12650;SDS011;6390;49.400;8.670;2023-02-28T08:54:59;3.45;;;3.15;;
12650;SDS011;6390;49.400;8.670;2023-02-28T08:57:25;4.25;;;3.10;;
12650;SDS011;6390;49.400;8.670;2023-02-28T08:59:52;3.47;;;3.10;;
12650;SDS011;6390;49.400;8.670;2023-02-28T09:02:18;3.75;;;3.45;;
12650;SDS011;6390;49.400;8.670;2023-02-28T09:04:44;3.58;;;3.28;;
12650;SDS011;6390;49.400;8.670;2023-02-28T09:07:11;4.40;;;3.17;;
12650;SDS011;6390;49.400;8.670;2023-02-28T09:09:37;3.90;;;3.58;;
12650;SDS011;6390;49.400;8.670;2023-02-28T09:12:18;3.70;;;3.20;;
12650;SDS011;6390;49.400;8.670;2023-02-28T09:14:47;4.00;;;3.03;;
12650;SDS011;6390;49.400;8.670;2023-02-28T09:17:13;4.38;;;3.42;;
12650;SDS011;6390;49.400;8.670;2023-02-28T09:19:41;3.70;;;3.35;;
12650;SDS011;6390;49.400;8.670;2023-02-28T09:22:07;3.92;;;3.47;;
12650;SDS011;6390;49.400;8.670;2023-02-28T09:24:35;3.42;;;3.13;;
12650;SDS011;6390;49.400;8.670;2023-02-28T09:27:02;7.10;;;3.78;;
12650;SDS011;6390;49.400;8.670;2023-02-28T09:29:28;3.70;;;3.25;;
12650;SDS011;6390;49.400;8.670;2023-02-28T09:31:55;4.00;;;3.60;;
12650;SDS011;6390;49.400;8.670;2023-02-28T09:34:24;3.67;;;3.30;;
12650;SDS011;6390;49.400;8.670;2023-02-28T09:36:51;3.83;;;3.03;;
12650;SDS011;6390;49.400;8.670;2023-02-28T09:39:19;3.40;;;3.10;;
12650;SDS011;6390;49.400;8.670;2023-02-28T09:41:48;3.78;;;3.38;;
12650;SDS011;6390;49.400;8.670;2023-02-28T09:44:38;3.90;;;3.30;;
12650;SDS011;6390;49.400;8.670;2023-02-28T09:47:09;3.65;;;3.20;;
12650;SDS011;6390;49.400;8.670;2023-02-28T09:49:42;3.88;;;3.35;;
12650;SDS011;6390;49.400;8.670;2023-02-28T09:52:33;4.93;;;3.60;;
12650;SDS011;6390;49.400;8.670;2023-02-28T09:55:20;3.42;;;3.13;;
12650;SDS011;6390;49.400;8.670;2023-02-28T09:57:55;4.72;;;3.30;;
12650;SDS011;6390;49.400;8.670;2023-02-28T10:00:27;4.13;;;3.45;;
12650;SDS011;6390;49.400;8.670;2023-02-28T10:06:07;3.33;;;3.03;;
12650;SDS011;6390;49.400;8.670;2023-02-28T10:11:27;3.95;;;3.58;;
12650;SDS011;6390;49.400;8.670;2023-02-28T10:13:56;4.07;;;3.65;;
12650;SDS011;6390;49.400;8.670;2023-02-28T10:16:43;4.18;;;3.75;;
12650;SDS011;6390;49.400;8.670;2023-02-28T10:19:23;4.25;;;3.85;;
12650;SDS011;6390;49.400;8.670;2023-02-28T10:21:54;4.28;;;3.88;;
12650;SDS011;6390;49.400;8.670;2023-02-28T10:24:35;3.88;;;3.53;;
12650;SDS011;6390;49.400;8.670;2023-02-28T10:27:18;5.22;;;3.60;;
12650;SDS011;6390;49.400;8.670;2023-02-28T10:29:50;4.15;;;3.70;;
12650;SDS011;6390;49.400;8.670;2023-02-28T10:32:26;4.47;;;3.75;;
12650;SDS011;6390;49.400;8.670;2023-02-28T10:35:00;4.10;;;3.50;;
12650;SDS011;6390;49.400;8.670;2023-02-28T10:37:39;4.05;;;3.65;;
12650;SDS011;6390;49.400;8.670;2023-02-28T10:40:24;3.80;;;3.47;;
12650;SDS011;6390;49.400;8.670;2023-02-28T10:43:04;4.07;;;3.67;;
12650;SDS011;6390;49.400;8.670;2023-02-28T10:45:38;3.92;;;3.53;;
12650;SDS011;6390;49.400;8.670;2023-02-28T11:01:15;4.63;;;3.85;;
12650;SDS011;6390;49.400;8.670;2023-02-28T11:04:19;5.10;;;3.75;;
12650;SDS011;6390;49.400;8.670;2023-02-28T11:07:40;4.03;;;3.63;;
12650;SDS011;6390;49.400;8.670;2023-02-28T11:09:48;4.03;;;3.63;;
12650;SDS011;6390;49.400;8.670;2023-02-28T11:12:28;4.05;;;3.65;;
12650;SDS011;6390;49.400;8.670;2023-02-28T11:15:26;3.95;;;3.50;;
12650;SDS011;6390;49.400;8.670;2023-02-28T11:20:47;3.78;;;3.38;;
12650;SDS011;6390;49.400;8.670;2023-02-28T11:23:16;3.60;;;3.30;;
12650;SDS011;6390;49.400;8.670;2023-02-28T11:25:47;4.00;;;3.60;;
12650;SDS011;6390;49.400;8.670;2023-02-28T11:28:34;3.78;;;3.35;;
12650;SDS011;6390;49.400;8.670;2023-02-28T11:36:21;4.30;;;3.47;;
12650;SDS011;6390;49.400;8.670;2023-02-28T11:38:51;4.30;;;3.72;;
12650;SDS011;6390;49.400;8.670;2023-02-28T11:41:34;5.10;;;4.10;;
12650;SDS011;6390;49.400;8.670;2023-02-28T11:48:08;4.00;;;3.60;;
12650;SDS011;6390;49.400;8.670;2023-02-28T11:56:33;4.75;;;3.88;;
12650;SDS011;6390;49.400;8.670;2023-02-28T12:01:40;4.20;;;3.80;;
12650;SDS011;6390;49.400;8.670;2023-02-28T12:07:47;3.70;;;3.33;;
12650;SDS011;6390;49.400;8.670;2023-02-28T12:10:20;4.03;;;3.63;;
12650;SDS011;6390;49.400;8.670;2023-02-28T12:13:00;4.30;;;3.88;;
12650;SDS011;6390;49.400;8.670;2023-02-28T12:19:20;4.43;;;4.03;;
12650;SDS011;6390;49.400;8.670;2023-02-28T12:21:56;4.30;;;3.88;;
12650;SDS011;6390;49.400;8.670;2023-02-28T12:27:43;4.40;;;4.00;;
12650;SDS011;6390;49.400;8.670;2023-02-28T12:33:03;4.35;;;3.95;;
12650;SDS011;6390;49.400;8.670;2023-02-28T12:35:33;4.20;;;3.80;;
12650;SDS011;6390;49.400;8.670;2023-02-28T12:43:34;4.70;;;4.30;;
12650;SDS011;6390;49.400;8.670;2023-02-28T12:46:07;4.30;;;3.90;;
12650;SDS011;6390;49.400;8.670;2023-02-28T12:48:46;4.70;;;4.20;;
12650;SDS011;6390;49.400;8.670;2023-02-28T12:51:21;5.50;;;4.60;;
12650;SDS011;6390;49.400;8.670;2023-02-28T12:53:57;4.43;;;3.97;;
12650;SDS011;6390;49.400;8.670;2023-02-28T13:02:28;4.70;;;4.10;;
12650;SDS011;6390;49.400;8.670;2023-02-28T13:10:57;4.85;;;4.25;;
12650;SDS011;6390;49.400;8.670;2023-02-28T13:13:24;4.65;;;4.07;;
12650;SDS011;6390;49.400;8.670;2023-02-28T13:21:21;5.32;;;4.30;;
12650;SDS011;6390;49.400;8.670;2023-02-28T13:26:21;4.53;;;3.70;;
12650;SDS011;6390;49.400;8.670;2023-02-28T13:31:14;4.70;;;4.20;;
12650;SDS011;6390;49.400;8.670;2023-02-28T13:36:27;4.40;;;4.00;;
12650;SDS011;6390;49.400;8.670;2023-02-28T13:38:59;4.55;;;4.13;;
12650;SDS011;6390;49.400;8.670;2023-02-28T13:41:46;4.07;;;3.67;;
12650;SDS011;6390;49.400;8.670;2023-02-28T13:44:13;4.40;;;4.00;;
12650;SDS011;6390;49.400;8.670;2023-02-28T13:51:50;5.00;;;4.20;;
12650;SDS011;6390;49.400;8.670;2023-02-28T14:06:29;4.80;;;4.38;;
12650;SDS011;6390;49.400;8.670;2023-02-28T14:11:55;6.05;;;4.55;;
12650;SDS011;6390;49.400;8.670;2023-02-28T14:17:08;4.78;;;4.25;;
12650;SDS011;6390;49.400;8.670;2023-02-28T14:19:40;4.68;;;4.20;;
12650;SDS011;6390;49.400;8.670;2023-02-28T14:28:27;4.70;;;4.20;;
12650;SDS011;6390;49.400;8.670;2023-02-28T14:31:12;4.28;;;3.88;;
12650;SDS011;6390;49.400;8.670;2023-02-28T14:36:50;4.07;;;3.67;;
12650;SDS011;6390;49.400;8.670;2023-02-28T14:39:27;5.05;;;4.47;;
12650;SDS011;6390;49.400;8.670;2023-02-28T14:41:55;4.93;;;4.40;;
12650;SDS011;6390;49.400;8.670;2023-02-28T14:44:28;5.20;;;4.70;;
12650;SDS011;6390;49.400;8.670;2023-02-28T14:46:55;5.10;;;4.50;;
12650;SDS011;6390;49.400;8.670;2023-02-28T14:52:30;4.18;;;3.78;;
12650;SDS011;6390;49.400;8.670;2023-02-28T14:54:57;4.15;;;3.65;;
12650;SDS011;6390;49.400;8.670;2023-02-28T14:57:33;5.55;;;4.97;;
12650;SDS011;6390;49.400;8.670;2023-02-28T15:00:15;4.50;;;4.10;;
12650;SDS011;6390;49.400;8.670;2023-02-28T15:03:17;4.25;;;3.85;;
12650;SDS011;6390;49.400;8.670;2023-02-28T15:05:54;4.43;;;4.03;;
12650;SDS011;6390;49.400;8.670;2023-02-28T15:08:23;4.47;;;4.05;;
12650;SDS011;6390;49.400;8.670;2023-02-28T15:13:41;4.72;;;4.32;;
12650;SDS011;6390;49.400;8.670;2023-02-28T15:21:15;4.85;;;3.95;;
12650;SDS011;6390;49.400;8.670;2023-02-28T15:23:44;4.53;;;4.13;;
12650;SDS011;6390;49.400;8.670;2023-02-28T15:26:19;5.20;;;4.70;;
12650;SDS011;6390;49.400;8.670;2023-02-28T15:28:49;4.13;;;3.72;;
12650;SDS011;6390;49.400;8.670;2023-02-28T15:32:03;4.82;;;3.92;;
12650;SDS011;6390;49.400;8.670;2023-02-28T15:34:20;5.55;;;4.18;;
12650;SDS011;6390;49.400;8.670;2023-02-28T15:36:48;4.50;;;4.10;;
12650;SDS011;6390;49.400;8.670;2023-02-28T15:39:24;4.70;;;4.10;;
12650;SDS011;6390;49.400;8.670;2023-02-28T15:42:09;5.07;;;4.57;;
12650;SDS011;6390;49.400;8.670;2023-02-28T15:44:45;4.15;;;3.72;;
12650;SDS011;6390;49.400;8.670;2023-02-28T15:47:21;5.47;;;4.68;;
12650;SDS011;6390;49.400;8.670;2023-02-28T15:49:51;4.72;;;3.63;;
12650;SDS011;6390;49.400;8.670;2023-02-28T15:52:27;4.25;;;3.85;;
12650;SDS011;6390;49.400;8.670;2023-02-28T15:55:39;4.85;;;4.03;;
12650;SDS011;6390;49.400;8.670;2023-02-28T15:58:00;4.35;;;3.75;;
12650;SDS011;6390;49.400;8.670;2023-02-28T16:00:27;5.13;;;3.90;;
12650;SDS011;6390;49.400;8.670;2023-02-28T16:02:55;6.47;;;4.18;;
12650;SDS011;6390;49.400;8.670;2023-02-28T16:05:25;5.40;;;4.40;;
12650;SDS011;6390;49.400;8.670;2023-02-28T16:07:55;4.40;;;3.90;;
12650;SDS011;6390;49.400;8.670;2023-02-28T16:10:27;4.30;;;3.90;;
12650;SDS011;6390;49.400;8.670;2023-02-28T16:12:55;4.43;;;3.88;;
12650;SDS011;6390;49.400;8.670;2023-02-28T16:15:28;4.35;;;3.70;;
12650;SDS011;6390;49.400;8.670;2023-02-28T16:17:56;4.65;;;4.20;;
12650;SDS011;6390;49.400;8.670;2023-02-28T16:20:29;5.68;;;4.45;;
12650;SDS011;6390;49.400;8.670;2023-02-28T16:22:56;4.57;;;3.78;;
12650;SDS011;6390;49.400;8.670;2023-02-28T16:25:47;5.07;;;4.22;;
12650;SDS011;6390;49.400;8.670;2023-02-28T16:28:15;4.38;;;3.92;;
12650;SDS011;6390;49.400;8.670;2023-02-28T16:30:45;4.55;;;4.15;;
12650;SDS011;6390;49.400;8.670;2023-02-28T16:33:12;3.88;;;3.47;;
12650;SDS011;6390;49.400;8.670;2023-02-28T16:35:38;4.50;;;3.92;;
12650;SDS011;6390;49.400;8.670;2023-02-28T16:38:04;4.15;;;3.58;;
12650;SDS011;6390;49.400;8.670;2023-02-28T16:40:32;4.78;;;4.28;;
12650;SDS011;6390;49.400;8.670;2023-02-28T16:43:00;4.75;;;4.18;;
12650;SDS011;6390;49.400;8.670;2023-02-28T16:45:33;4.20;;;3.78;;
12650;SDS011;6390;49.400;8.670;2023-02-28T16:48:00;4.40;;;3.97;;
12650;SDS011;6390;49.400;8.670;2023-02-28T16:50:27;4.68;;;3.92;;
12650;SDS011;6390;49.400;8.670;2023-02-28T16:52:55;6.22;;;3.63;;
12650;SDS011;6390;49.400;8.670;2023-02-28T16:55:22;5.55;;;4.22;;
12650;SDS011;6390;49.400;8.670;2023-02-28T16:57:59;4.28;;;3.67;;
12650;SDS011;6390;49.400;8.670;2023-02-28T17:00:26;4.22;;;3.67;;
12650;SDS011;6390;49.400;8.670;2023-02-28T17:02:55;4.38;;;3.97;;
12650;SDS011;6390;49.400;8.670;2023-02-28T17:05:22;4.82;;;3.85;;
12650;SDS011;6390;49.400;8.670;2023-02-28T17:07:49;4.40;;;3.80;;
12650;SDS011;6390;49.400;8.670;2023-02-28T17:10:16;4.65;;;4.03;;
12650;SDS011;6390;49.400;8.670;2023-02-28T17:12:49;4.07;;;3.67;;
12650;SDS011;6390;49.400;8.670;2023-02-28T17:15:16;4.60;;;3.72;;
12650;SDS011;6390;49.400;8.670;2023-02-28T17:17:44;4.38;;;3.97;;
12650;SDS011;6390;49.400;8.670;2023-02-28T17:20:16;4.70;;;3.88;;
12650;SDS011;6390;49.400;8.670;2023-02-28T17:22:51;4.60;;;3.95;;
12650;SDS011;6390;49.400;8.670;2023-02-28T17:25:18;4.18;;;3.75;;
12650;SDS011;6390;49.400;8.670;2023-02-28T17:27:44;4.85;;;3.92;;
12650;SDS011;6390;49.400;8.670;2023-02-28T17:32:52;5.70;;;4.35;;
12650;SDS011;6390;49.400;8.670;2023-02-28T17:35:19;5.57;;;4.68;;
12650;SDS011;6390;49.400;8.670;2023-02-28T17:37:45;4.75;;;4.22;;
12650;SDS011;6390;49.400;8.670;2023-02-28T17:40:12;6.53;;;3.83;;
12650;SDS011;6390;49.400;8.670;2023-02-28T17:42:45;4.00;;;3.60;;
12650;SDS011;6390;49.400;8.670;2023-02-28T17:45:11;4.20;;;3.78;;
12650;SDS011;6390;49.400;8.670;2023-02-28T17:47:38;4.45;;;3.88;;
12650;SDS011;6390;49.400;8.670;2023-02-28T17:50:04;4.78;;;3.40;;
12650;SDS011;6390;49.400;8.670;2023-02-28T17:52:31;5.60;;;3.40;;
12650;SDS011;6390;49.400;8.670;2023-02-28T17:55:01;6.13;;;3.00;;
12650;SDS011;6390;49.400;8.670;2023-02-28T17:57:29;3.83;;;2.90;;
12650;SDS011;6390;49.400;8.670;2023-02-28T17:59:55;4.15;;;3.55;;
12650;SDS011;6390;49.400;8.670;2023-02-28T18:02:21;3.70;;;3.28;;
12650;SDS011;6390;49.400;8.670;2023-02-28T18:04:47;3.92;;;3.28;;
12650;SDS011;6390;49.400;8.670;2023-02-28T18:07:13;3.72;;;3.22;;